Weather observations for the past three days for
Natchitoches, Natchitoches Regional Airport
Imperial (Metric)
Date Time (cdt) Wind (mph) Vis. (mi.) Weather Sky Cond. Temperature (ºF) Relative Humidity Wind Chill (°F) Heat Index (°F) Pressure Precipitation (in)
Air Dwpt 6 hour altimeter (in) sea level (mb) 1 hr 3 hr 6 hr
Max. Min.
10 10:55 Calm 10.00 Overcast OVC009 73.6 70.3 90% 30.01 0.0
10 10:35 Calm 10.00 Overcast BKN007 OVC010 72 70.9 96% 30.01 0.0
10 10:15 Calm 10.00 Overcast BKN005 OVC012 71.1 71.1 100% 30.01 0.0
10 09:55 SE 9 7.00 Overcast OVC003 69.8 69.8 100% 30.01 0.0
10 09:35 Calm 3.00 Fog/Mist OVC003 68.9 68.9 100% 30.02 0.0
10 09:15 Calm 1.50 Light Rain OVC003 68.5 68.5 100% 30.04 0.0
10 08:55 Calm 1.50 Fog/Mist OVC003 68.5 68.5 100% 30.04 0.0
10 08:35 Calm 3.00 Fog/Mist OVC003 68.5 68.5 100% 30.04 0.0
10 08:15 Calm 5.00 Fog/Mist OVC005 68.9 68.9 100% 30.03 0.0
10 07:55 Calm 3.00 Fog/Mist OVC005 68.4 68.4 100% 30.03 0.0
10 07:35 Calm 4.00 Fog/Mist OVC005 68 68 100% 30.02 0.0
10 07:15 Calm 7.00 Overcast OVC005 68 68 100% 30.01 0.0
10 06:55 Calm 10.00 Overcast OVC005 67.8 67.8 68 67.5 100% 29.99 0.0
10 06:35 Calm 10.00 Overcast OVC007 67.6 67.6 100% 29.98 0.0
10 06:15 Calm 10.00 Overcast OVC007 67.6 67.6 100% 29.96 0.0
10 05:55 Calm 10.00 Overcast OVC007 67.8 67.8 100% 29.96 0.0
10 05:35 Calm 10.00 Overcast OVC007 68 68 100% 29.96 0.0
10 05:15 Calm 10.00 Overcast OVC007 68 68 100% 29.96 0.0
10 04:55 Calm 10.00 Overcast OVC007 67.6 67.6 100% 29.96 0.0
10 04:35 Calm 10.00 Overcast OVC007 67.6 67.6 100% 29.93 0.0
10 04:15 Calm 10.00 Overcast OVC007 68 68 100% 29.92 0.0
10 03:55 Calm 10.00 Overcast OVC007 67.6 67.6 100% 29.92 0.0
10 03:35 Calm 10.00 Overcast OVC007 67.6 67.6 100% 29.91 0.0
10 03:15 Calm 10.00 Overcast OVC007 67.6 67.6 100% 29.91 0.0
10 02:55 Calm 10.00 Overcast OVC007 67.6 67.6 100% 29.91 0.0
10 02:35 Calm 10.00 Overcast OVC007 67.6 67.6 100% 29.9 0.0
10 02:15 Calm 10.00 Overcast OVC007 67.6 67.6 100% 29.9 0.0
10 01:55 Calm 10.00 Overcast OVC007 67.5 67.5 100% 29.9 0.0
10 01:35 Calm 10.00 Overcast OVC007 67.6 67.6 100% 29.9 0.0
10 01:15 Calm 10.00 Overcast OVC007 67.6 67.6 100% 29.9 0.0
10 00:55 Calm 10.00 Overcast OVC007 67.6 67.6 70.3 65.3 100% 29.9 0.0
10 00:35 Calm 10.00 Overcast OVC007 67.6 67.6 100% 29.9 0.0
10 00:15 Calm 10.00 Overcast OVC007 67.6 67.6 100% 29.9 0.0
09 23:55 Calm 10.00 Overcast OVC007 67.5 67.5 100% 29.9 0.0
09 23:35 Calm 10.00 Overcast OVC007 67.5 67.5 100% 29.91 0.0
09 23:15 Calm 10.00 Overcast OVC009 67.3 67.3 100% 29.91 0.0
09 22:55 Calm 10.00 Overcast OVC009 66.6 66.6 100% 29.92 0.0
09 22:35 Calm 7.00 Mostly Cloudy BKN011 65.5 65.5 100% 29.92 0.0
09 22:15 Calm 10.00 Fair CLR 65.7 65.7 100% 29.91 0.0
09 21:55 Calm 10.00 Fair CLR 66.2 66.2 100% 29.9 0.0
09 21:35 Calm 10.00 Fair CLR 66.4 66.4 100% 29.89 0.0
09 21:15 Calm 10.00 Fair CLR 67.1 67.1 100% 29.89 0.0
09 20:55 Calm 10.00 Fair CLR 68 68 100% 29.88 0.0
09 20:35 Calm 10.00 Fair CLR 68.4 68.4 100% 29.88 0.0
09 20:15 Calm 10.00 Fair CLR 68.9 68.9 100% 29.87 0.0
09 19:55 Calm 10.00 Partly Cloudy SCT007 69.8 69.6 99% 29.86 0.0
09 19:35 Calm 10.00 Partly Cloudy SCT007 70 70 100% 29.86 0.0
09 19:15 Calm 10.00 Overcast BKN009 OVC013 70 70 100% 29.85 0.0
09 18:55 Calm 10.00 Overcast OVC013 70.3 70.2 77.4 69.3 99% 29.86 0.0
09 18:35 SE 6 10.00 Overcast BKN013 OVC029 70.7 70 98% 29.86 0.0
09 18:15 Calm 10.00 Overcast SCT013 BKN025 OVC030 70.2 70.2 100% 29.85 0.0
09 17:55 SE 7 10.00 Light Drizzle SCT016 OVC025 69.8 69.3 98% 29.86 0.0
09 17:35 SE 3 10.00 Drizzle SCT018 BKN044 OVC080 70 69.8 99% 29.85 0.0
09 17:15 Calm 10.00 Thunderstorm Drizzle BKN022 BKN027 OVC050 69.8 69.8 100% 29.85 0.0
09 16:55 Calm 10.00 Light Drizzle SCT007 SCT011 OVC020 69.8 69.8 100% 29.85 0.0
09 16:35 SE 12 4.00 Thunderstorm Light Rain in Vicinity BKN007 BKN011 OVC016 69.4 69.4 100% 29.84 0.0
09 16:15 SE 13 G 18 5.00 Light Rain SCT007 OVC013 72 72 100% 29.84 0.0
09 15:55 SE 10 10.00 Overcast OVC013 73.4 71.2 93% 29.84 0.0
09 15:35 E 9 10.00 Overcast BKN015 OVC025 74.5 70.2 86% 29.84 0.0
09 15:15 Calm 10.00 Overcast SCT015 OVC025 76.1 70.2 82% 77 29.84 0.0
09 14:55 Calm 10.00 Overcast BKN015 OVC023 76.3 70 81% 77 29.85 0.0
09 14:35 Calm 10.00 Overcast OVC025 76.5 69.6 79% 78 29.85 0.0
09 14:15 Calm 10.00 Overcast OVC025 76.6 69.8 79% 78 29.84 0.0
09 13:55 Calm 10.00 Overcast OVC023 75.7 69.1 80% 77 29.85 0.0
09 13:35 Calm 10.00 Overcast SCT013 OVC021 75 68.5 80% 76 29.85 0.0
09 13:15 Calm 10.00 Overcast OVC013 74.5 68.7 82% 29.86 0.0
09 12:55 Calm 10.00 Overcast OVC013 74.7 68.5 75.9 64 81% 29.87 0.0
09 12:35 Calm 10.00 Overcast OVC015 74.7 68.2 80% 29.87 0.0
09 12:15 Calm 10.00 Overcast SCT015 OVC021 74.5 67.8 80% 29.88 0.0
09 11:55 Calm 10.00 Overcast OVC019 75.7 68.7 79% 77 29.88 0.0
09 11:35 Calm 10.00 Overcast OVC019 73.9 67.1 79% 29.88 0.0
09 11:15 Calm 10.00 Mostly Cloudy BKN017 72.3 66.2 81% 29.88 0.0
09 10:55 Calm 10.00 Mostly Cloudy BKN019 72.3 66.7 83% 29.88 0.0
09 10:35 Calm 10.00 Overcast OVC021 69.4 66.9 92% 29.87 0.0
09 10:15 Calm 10.00 Overcast SCT015 OVC021 68 67.6 99% 29.87 0.0
09 09:55 Calm 10.00 Overcast BKN015 OVC021 67.3 67.3 100% 29.87 0.0
09 09:35 Calm 10.00 Overcast OVC017 66.9 66.9 100% 29.88 0.0
09 09:15 Calm 10.00 Overcast OVC017 66.6 66.6 100% 29.88 0.0
09 08:55 Calm 10.00 Overcast OVC019 66 66 100% 29.88 0.0
09 08:35 Calm 10.00 Overcast OVC019 65.5 65.5 100% 29.88 0.0
09 08:15 Calm 10.00 Overcast SCT019 OVC026 65.3 65.3 100% 29.88 0.0
09 07:55 Calm 10.00 Mostly Cloudy SCT019 BKN026 BKN030 65.3 65.3 100% 29.88 0.0
09 07:35 Calm 10.00 Mostly Cloudy BKN024 64.6 64.6 100% 29.86 0.0
09 07:15 Calm 10.00 Overcast OVC026 64.4 64.4 100% 29.85 0.0
09 06:55 Calm 10.00 Light Rain OVC026 63.9 63.9 69.3 63.1 100% 29.87 0.0
09 06:35 Calm 10.00 Light Rain OVC026 63.7 63.7 100% 29.87 0.0
09 06:15 Calm 10.00 Overcast OVC028 63.7 63.7 100% 29.86 0.0
09 05:55 Calm 10.00 Overcast BKN032 OVC038 63.7 63.7 100% 29.85 0.0
09 05:35 Calm 10.00 Overcast BKN036 OVC044 63.5 63.5 100% 29.85 0.0
09 05:15 Calm 7.00 Thunderstorm Rain in Vicinity BKN042 OVC060 63.5 63.5 100% 29.84 0.0
09 04:55 Calm 10.00 Light Drizzle SCT004 OVC045 63.5 63.5 100% 29.86 0.0
09 04:35 Calm 10.00 Light Drizzle SCT004 SCT049 OVC060 63.5 63.5 100% 29.86 0.0
09 04:15 Calm 5.00 Thunderstorm Rain in Vicinity SCT006 SCT034 OVC060 63.1 63.1 100% 29.86 0.0
09 03:55 Calm 2.00 Thunderstorm Rain in Vicinity BKN006 BKN012 OVC035 63.3 63.3 100% 29.86 0.0
09 03:35 N 7 G 22 1.00 Thunderstorm Heavy Rain OVC007 63.9 63.9 100% 29.88 0.0
09 03:15 N 24 G 29 5.00 Thunderstorm Heavy Rain and Breezy SCT005 OVC012 68.7 68.7 100% 29.9 0.0
09 02:55 Calm 7.00 Thunderstorm Light Rain in Vicinity OVC012 68.5 68.5 100% 29.84 0.0
09 02:35 Calm 10.00 Thunderstorm in Vicinity OVC012 68.9 68.9 100% 29.84 0.0
09 02:15 Calm 10.00 Overcast BKN008 OVC012 68.9 68.9 100% 29.85 0.0
09 01:55 Calm 10.00 Overcast OVC008 69.1 69.1 100% 29.86 0.0
09 01:35 Calm 10.00 Thunderstorm in Vicinity OVC008 69.1 69.1 100% 29.86 0.0
09 01:15 Calm 10.00 Overcast OVC010 69.3 69.3 100% 29.87 0.0
09 00:55 Calm 10.00 Overcast OVC010 69.3 69.3 69.4 67.6 100% 29.88 0.0
09 00:35 Calm 10.00 Overcast OVC012 69.3 69.1 99% 29.87 0.0
09 00:15 Calm 10.00 Overcast OVC012 69.1 68.9 99% 29.87 0.0
08 23:55 Calm 10.00 Overcast OVC012 68.9 68.9 100% 29.87 0.0
08 23:35 Calm 10.00 Overcast BKN014 OVC019 67.6 67.6 100% 29.86 0.0
08 23:15 Calm 10.00 Mostly Cloudy SCT009 SCT014 BKN021 68 68 100% 29.86 0.0
08 22:55 Calm 10.00 Mostly Cloudy BKN009 BKN110 68.4 68.2 99% 29.85 0.0
08 22:35 Calm 10.00 Mostly Cloudy SCT009 SCT020 BKN110 68 68 100% 29.85 0.0
08 22:15 Calm 10.00 Overcast BKN009 OVC018 68.7 68.2 98% 29.84 0.0
08 21:55 Calm 10.00 Overcast OVC011 68.5 68 98% 29.84 0.0
08 21:35 Calm 10.00 Overcast OVC011 68.2 67.6 98% 29.83 0.0
08 21:15 S 8 10.00 Overcast OVC011 68 67.5 98% 29.83 0.0
08 20:55 SE 10 10.00 Overcast OVC011 68.2 66.9 96% 29.82 0.0
08 20:35 Calm 10.00 Overcast OVC011 68.4 66.4 93% 29.83 0.0
08 20:15 Calm 10.00 Overcast OVC011 68.5 65.5 90% 29.85 0.0
08 19:55 Calm 10.00 Overcast OVC011 68.9 65.5 89% 29.86 0.0
08 19:35 Calm 10.00 Overcast OVC013 68.9 65.1 88% 29.85 0.0
08 19:15 Calm 10.00 Overcast OVC013 68.7 64.8 87% 29.85 0.0
08 18:55 Calm 10.00 Overcast OVC011 68.9 64.6 75.2 68.9 86% 29.86 0.0
08 18:35 Calm 10.00 Overcast OVC011 69.3 64.4 85% 29.86 0.0
08 18:15 Calm 10.00 Overcast OVC011 68.9 64.4 86% 29.86 0.0
08 17:55 Calm 10.00 Overcast SCT013 BKN020 OVC060 68.9 64.4 86% 29.86 0.0
08 17:35 SE 6 10.00 Overcast SCT013 BKN060 OVC070 69.8 64.4 83% 29.85 0.0
08 17:15 Calm 10.00 Overcast SCT013 BKN019 OVC070 70.3 64.4 82% 29.86 0.0
08 16:55 S 8 10.00 Overcast SCT013 OVC019 71.2 64.9 81% 29.86 0.0
08 16:35 SE 10 10.00 Overcast BKN015 OVC020 70 64.6 83% 29.87 0.0
08 16:15 SE 7 10.00 Overcast OVC016 70.3 64.8 83% 29.87 0.0
08 15:55 S 9 10.00 Overcast OVC018 71.1 64.8 81% 29.87 0.0
08 15:35 SE 7 10.00 Overcast OVC020 72.9 64.9 76% 29.87 0.0
08 15:15 SE 9 10.00 Partly Cloudy SCT020 SCT085 73.4 64.4 74% 29.87 0.0
08 14:55 SE 6 10.00 Partly Cloudy SCT020 SCT085 73.8 63.7 71% 29.88 0.0
08 14:35 Calm 10.00 Partly Cloudy SCT085 74.1 63.1 69% 29.89 0.0
08 14:15 Calm 10.00 Partly Cloudy SCT085 73.6 62.4 68% 29.89 0.0
08 13:55 SE 7 10.00 Fair CLR 74.1 62.2 67% 29.9 0.0
08 13:35 SE 7 10.00 Fair CLR 73.4 61.5 66% 29.9 0.0
08 13:15 Calm 10.00 Fair CLR 72.3 60.1 66% 29.91 0.0
08 12:55 E 6 10.00 Fair CLR 71.6 59.2 71.6 61 65% 29.93 0.0
08 12:35 E 9 10.00 Fair CLR 70.7 59.2 67% 29.92 0.0
08 12:15 E 9 10.00 Partly Cloudy SCT050 69.8 59.2 69% 29.93 0.0
08 11:55 Calm 10.00 Partly Cloudy SCT050 67.3 58.5 73% 29.95 0.0
08 11:35 Calm 10.00 Partly Cloudy SCT033 SCT045 SCT065 65.3 59.5 82% 29.95 0.0
08 11:15 Calm 10.00 Light Rain SCT033 BKN047 OVC065 62.6 58.3 86% 29.96 0.0
08 10:55 Calm 10.00 Light Rain BKN050 OVC065 62.2 57.6 85% 30 0.0
08 10:35 Calm 10.00 Thunderstorm Light Rain SCT033 BKN048 OVC065 62.6 56.7 81% 30.02 0.0
08 10:15 Calm 10.00 Thunderstorm Light Rain in Vicinity SCT033 SCT046 OVC065 62.8 56.3 80% 30.01 0.0
08 09:55 Calm 10.00 Thunderstorm in Vicinity BKN065 BKN120 62.6 55.6 78% 29.98 0.0
08 09:35 Calm 10.00 Mostly Cloudy SCT047 BKN065 BKN090 62.8 56.1 79% 29.99 0.0
08 09:15 Calm 10.00 Partly Cloudy SCT047 SCT065 SCT080 62.6 55.9 79% 29.99 0.0
08 08:55 Calm 10.00 Mostly Cloudy SCT045 BKN080 62.2 56.1 81% 29.98 0.0
08 08:35 Calm 10.00 Thunderstorm in Vicinity OVC045 62.8 56.7 81% 29.98 0.0
08 08:15 Calm 10.00 Mostly Cloudy BKN045 62.6 56.3 80% 29.99 0.0
08 07:55 Calm 10.00 Fair CLR 62.6 56.1 79% 29.97 0.0
08 07:35 Calm 10.00 Fair CLR 62.1 56.3 82% 29.97 0.0
08 07:15 Calm 10.00 Fair CLR 61.5 56.8 85% 29.95 0.0
08 06:55 Calm 10.00 Fair CLR 61 58.5 64.2 60.8 91% 29.95 0.0
08 06:35 Calm 10.00 Partly Cloudy SCT050 61.3 59.2 93% 29.97 0.0
08 06:15 Calm 10.00 Overcast OVC050 61.7 59.2 92% 29.98 0.0
08 06:00 Calm 10.00 Overcast OVC050 61.7 59.5 93% 29.98 0.0
08 05:35 Calm 10.00 Partly Cloudy SCT050 60.8 59.4 95% 29.97 0.0
08 05:15 Calm 10.00 Partly Cloudy SCT050 61.2 59.2 93% 29.97 0.0
08 04:55 Calm 10.00 Fair CLR 61.2 59.2 93% 29.97 0.0
08 04:35 Calm 10.00 Fair CLR 61.7 59.2 92% 29.97 0.0
08 04:15 Calm 10.00 Fair CLR 61 59.5 95% 29.98 0.0
08 03:55 Calm 10.00 Fair CLR 61.5 58.3 89% 29.98 0.0
08 03:35 Calm 10.00 Fair CLR 62.1 58.1 87% 29.98 0.0
08 03:15 Calm 10.00 Fair CLR 62.6 58.3 86% 29.97 0.0
08 02:55 Calm 10.00 Fair CLR 63 58.3 85% 29.97 0.0
08 02:35 Calm 10.00 Fair CLR 63.3 58.3 84% 29.97 0.0
08 02:15 Calm 10.00 Fair CLR 63.1 58.3 84% 29.97 0.0
08 01:55 Calm 10.00 Fair CLR 63.7 58.1 82% 29.98 0.0
08 01:35 Calm 10.00 Fair CLR 63.7 58.3 83% 29.98 0.0
08 01:15 Calm 10.00 Fair CLR 63.9 59.4 85% 29.98 0.0
08 00:55 Calm 10.00 Fair CLR 64.2 59.9 68.9 63.1 86% 29.98 0.0
08 00:35 Calm 10.00 Fair CLR 64 60.6 89% 30 0.0
08 00:15 Calm 10.00 Fair CLR 64.8 60.8 87% 29.99 0.0
07 23:55 Calm 10.00 Fair CLR 64.8 62.1 91% 29.99 0.0
07 23:35 Calm 10.00 Fair CLR 64.8 61.7 90% 29.98 0.0
07 23:15 Calm 10.00 Fair CLR 63.1 62.8 99% 30 0.0
07 22:55 Calm 10.00 Fair CLR 64.9 61.7 89% 30 0.0
07 22:35 Calm 10.00 Fair CLR 65.5 60.6 84% 30.01 0.0
07 22:15 Calm 10.00 Fair CLR 66.2 60.4 82% 30 0.0
07 21:55 Calm 10.00 Fair CLR 65.5 61 85% 30 0.0
07 21:35 Calm 10.00 Fair CLR 65.3 60.8 85% 30 0.0
07 21:15 Calm 10.00 Fair CLR 66.7 59.5 78% 29.97 0.0
07 20:55 Calm 10.00 Fair CLR 65.3 62.4 90% 29.96 0.0
07 20:35 Calm 10.00 Fair CLR 64.2 62.6 95% 29.99 0.0
07 20:15 Calm 10.00 Fair CLR 67.1 59.9 78% 29.98 0.0
07 19:55 Calm 10.00 Fair CLR 65.8 60.3 82% 29.97 0.0
07 19:35 Calm 10.00 Fair CLR 67.8 59.2 74% 29.98 0.0
07 19:15 Calm 10.00 Fair CLR 68.9 58.6 70% 29.97 0.0
07 18:55 Calm 10.00 Fair CLR 68.9 58.5 72.5 68.9 70% 29.97 0.0
07 18:35 Calm 10.00 Fair CLR 69.6 58.3 67% 29.98 0.0
07 18:15 Calm 10.00 Fair CLR 70.2 57.4 64% 29.98 0.0
07 17:55 Calm 10.00 Fair CLR 70.5 56.8 62% 29.99 0.0
07 17:35 Calm 10.00 Fair CLR 71.1 57.2 62% 29.96 0.0
07 17:15 Calm 10.00 Fair CLR 72.5 56.7 58% 29.97 0.0
07 16:55 Calm 10.00 Fair CLR 71.6 56.3 59% 29.98 0.0
07 16:35 Calm 10.00 Fair CLR 71.4 57 61% 29.98 0.0
07 16:15 Calm 10.00 Fair CLR 71.4 56.7 60% 29.98 0.0
07 15:55 Calm 10.00 Fair CLR 70.9 55.9 59% 29.99 0.0
07 15:35 Calm 10.00 Fair CLR 70.7 56.3 60% 29.99 0.0
07 15:15 Calm 10.00 Fair CLR 70.7 55.6 59% 30 0.0
07 14:55 Calm 10.00 Fair CLR 70.7 54.9 57% 30 0.0
07 14:35 N 9 10.00 Fair CLR 71.1 55.9 59% 30.01 0.0
07 14:15 NE 7 10.00 Partly Cloudy SCT035 71.2 56.3 59% 30.01 0.0
07 13:55 Calm 10.00 Fair CLR 71.8 56.5 59% 30.01 0.0
07 13:35 Calm 10.00 Fair CLR 70.2 56.1 61% 30.01 0.0
07 13:15 NE 7 10.00 Fair CLR 71.6 57.6 61% 30.01 0.0
07 12:55 Calm 10.00 Fair CLR 69.6 57 69.6 54.9 64% 30.02 0.0
07 12:35 N 8 10.00 Fair CLR 68.5 56.3 65% 30.03 0.0
07 12:15 NE 9 10.00 Fair CLR 67.8 56.3 67% 30.03 0.0
07 11:55 Calm 10.00 Partly Cloudy SCT019 66 56.1 71% 30.06 0.0
07 11:35 Calm 10.00 Partly Cloudy SCT019 62.8 54.5 75% 30.06 0.0
07 11:15 Calm 10.00 Partly Cloudy SCT015 63.1 54.9 75% 30.05 0.0
Date Time (cdt) Wind (mph) Vis. (mi.) Weather Sky Cond. Air Dwpt Max. Min. Relative Humidity Wind Chill (°F) Heat Index (°F) altimeter (in) sea level (mb) 1 hr 3 hr 6 hr
6 hour
Temperature (ºF) Pressure Precipitation (in)